Decoded Metar for SPTN (TACNA in PERU) (IATA:TCQ) | Meteo·Mobile Aviation Weather
aviador You're here:

SPTN Decoded Metar

TACNA in PERU
Report Time2018-10-20 20:00:00
UTC Time2018-10-20 20:59:56
Flight Rules vfr VFR
Wind210° at 08 kt
W.Decomp.*RWY 20: 7.8 kt HW 1.8 kt RCW
W.Rank210° ranks 1
Current wind is above 210° avg. (7.0)
Visibility9999 m
Phenomena:N/A
Clouds:Few 030 Hf
Overcast 230 Hf
Expected CloudBase > 3,200 ft AGL from Temp-Dew spread
Ceiling23,000 ft
Temp19°C (ISA +7)
Dew Point11°C (60% RH)
AAT16.5°C
QNH1014 hPa
Density Alt2,467 ft
Elevation1,503 ft
Report Wrong Elevation
Raw Report
SPTN 202000Z 21008KT 190V260 9999 FEW030 OVC230 19/11 Q1014 RMK
PP000=

Extra information for SPTN:More info

Metar Taf Metar & Taf Last 4 Metars F.Rules Stats Wind Profile Meteogram Temp Stats Airport Information Weather charts Add Link Nearby VenuesMetar ALERT Operation Metar Decoded Social comments